Time;durP1;ratioP1;P1;durP2;ratioP2;P2;SDS_P1;SDS_P2;PMS_P1;PMS_P2;Temp;Humidity;BMP_temperature;BMP_pressure;BME280_temperature;BME280_humidity;BME280_pressure;Samples;Min_cycle;Max_cycle;Signal;HPM_P1;HPM_P2
2022/06/18 00:00:47;;;;;;;5.93;4.65;;;18.10;99.90;;;;;;5032241;28;20047;-75
2022/06/18 00:03:13;;;;;;;5.35;4.60;;;18.10;99.90;;;;;;5048846;28;20074;-75
2022/06/18 00:05:41;;;;;;;5.13;4.70;;;18.10;99.90;;;;;;5049119;28;20120;-75
2022/06/18 00:08:13;;;;;;;5.25;4.50;;;18.00;99.90;;;;;;5049128;28;20037;-75
2022/06/18 00:10:38;;;;;;;5.63;4.45;;;18.00;99.90;;;;;;5048909;28;20116;-75
2022/06/18 00:15:58;;;;;;;5.50;5.00;;;17.90;99.90;;;;;;5048728;28;20053;-75
2022/06/18 00:18:24;;;;;;;4.88;4.47;;;17.90;99.90;;;;;;5048785;28;20115;-74
2022/06/18 00:20:50;;;;;;;6.75;4.72;;;17.90;99.90;;;;;;5048663;28;20041;-75
2022/06/18 00:23:16;;;;;;;5.57;5.05;;;17.90;99.90;;;;;;5031815;28;20558;-75
2022/06/18 00:25:46;;;;;;;5.18;4.78;;;17.90;99.90;;;;;;5048682;28;20037;-75
2022/06/18 00:28:21;;;;;;;5.13;4.70;;;17.90;99.90;;;;;;5048869;28;20408;-76
2022/06/18 00:30:48;;;;;;;5.47;4.85;;;17.80;99.90;;;;;;5052953;28;20371;-75
2022/06/18 00:33:14;;;;;;;5.53;4.65;;;17.80;99.90;;;;;;5052372;28;20051;-76
2022/06/18 00:35:40;;;;;;;5.38;4.88;;;17.80;99.90;;;;;;5052400;28;20502;-75
2022/06/18 00:38:10;;;;;;;6.45;4.47;;;17.80;99.90;;;;;;5052166;28;20391;-75
2022/06/18 00:40:42;;;;;;;7.43;4.82;;;17.80;99.90;;;;;;5052210;28;20057;-75
2022/06/18 00:43:18;;;;;;;7.53;4.72;;;17.70;99.90;;;;;;5052237;28;20067;-75
2022/06/18 00:45:44;;;;;;;5.20;4.80;;;17.70;99.90;;;;;;5052254;28;20041;-75
2022/06/18 00:48:23;;;;;;;5.53;5.00;;;17.70;99.90;;;;;;5052236;28;20416;-75
2022/06/18 00:51:12;;;;;;;6.22;4.70;;;17.60;99.90;;;;;;5052232;28;20037;-75
2022/06/18 00:53:43;;;;;;;5.25;4.80;;;17.60;99.90;;;;;;5051835;28;20187;-76
2022/06/18 00:56:21;;;;;;;5.68;5.10;;;17.60;99.90;;;;;;5052173;28;20513;-75
2022/06/18 00:59:04;;;;;;;5.85;5.00;;;17.60;99.90;;;;;;5051938;28;20044;-75
2022/06/18 01:01:34;;;;;;;7.05;5.13;;;17.60;99.90;;;;;;5051925;28;20049;-75
2022/06/18 01:03:59;;;;;;;6.68;4.90;;;17.60;99.90;;;;;;5052197;28;20498;-75
2022/06/18 01:06:27;;;;;;;5.40;4.97;;;17.50;99.90;;;;;;5051803;28;20166;-75
2022/06/18 01:09:11;;;;;;;6.50;5.05;;;17.50;99.90;;;;;;5052949;28;20073;-75
2022/06/18 01:11:39;;;;;;;5.63;5.20;;;17.50;99.90;;;;;;5052168;28;20055;-75
2022/06/18 01:14:09;;;;;;;6.07;5.55;;;17.50;99.90;;;;;;5051638;28;20037;-75
2022/06/18 01:16:35;;;;;;;6.13;5.53;;;17.50;99.90;;;;;;5051756;28;20459;-75
2022/06/18 01:19:03;;;;;;;5.50;5.00;;;17.50;99.90;;;;;;5051690;28;20052;-75
2022/06/18 01:21:38;;;;;;;5.13;4.70;;;17.50;99.90;;;;;;5051733;28;20032;-75
2022/06/18 01:24:17;;;;;;;7.07;5.35;;;17.50;99.90;;;;;;5051403;28;20048;-74
2022/06/18 01:26:48;;;;;;;6.20;4.90;;;17.50;99.90;;;;;;5034788;28;20037;-75
2022/06/18 01:29:14;;;;;;;6.57;5.90;;;17.50;99.90;;;;;;5051586;28;20072;-75
2022/06/18 01:31:40;;;;;;;5.60;5.05;;;17.50;99.90;;;;;;5051643;28;20126;-75
2022/06/18 01:34:07;;;;;;;6.63;6.00;;;17.60;99.90;;;;;;5051071;28;20116;-75
2022/06/18 01:36:35;;;;;;;5.80;5.20;;;17.50;99.90;;;;;;5051443;28;20041;-75
2022/06/18 01:39:07;;;;;;;9.88;5.32;;;17.60;99.90;;;;;;5052652;28;20037;-75
2022/06/18 01:41:51;;;;;;;6.90;5.13;;;17.60;99.90;;;;;;5051374;28;20386;-75
2022/06/18 01:44:29;;;;;;;8.25;5.40;;;17.60;99.90;;;;;;5050936;28;20040;-76
2022/06/18 01:47:01;;;;;;;7.43;5.32;;;17.60;99.90;;;;;;5051066;28;20037;-76
2022/06/18 01:49:33;;;;;;;6.22;5.65;;;17.50;99.90;;;;;;5051010;28;20080;-76
2022/06/18 01:52:01;;;;;;;7.28;5.38;;;17.50;99.90;;;;;;5034364;28;20053;-76
2022/06/18 01:54:32;;;;;;;6.43;5.82;;;17.50;99.90;;;;;;5063947;23;20096;-73
2022/06/18 01:57:09;;;;;;;7.20;5.65;;;17.50;99.90;;;;;;5050918;28;20032;-73
2022/06/18 01:59:41;;;;;;;7.85;6.47;;;17.50;99.90;;;;;;5050657;28;20125;-72
2022/06/18 02:02:06;;;;;;;6.82;6.07;;;17.50;99.90;;;;;;5050929;28;20544;-72
2022/06/18 02:04:33;;;;;;;7.70;6.80;;;17.40;99.90;;;;;;5050763;28;20045;-73
2022/06/18 02:06:59;;;;;;;7.05;6.25;;;17.40;99.90;;;;;;5050451;28;20040;-73
2022/06/18 02:09:35;;;;;;;8.43;6.10;;;;;;;;;;5051663;28;20041;-73
2022/06/18 02:12:03;;;;;;;7.60;6.80;;;17.50;99.90;;;;;;5050680;28;20041;-73
2022/06/18 02:14:30;;;;;;;7.50;6.65;;;17.50;99.90;;;;;;5033898;28;20398;-73
2022/06/18 02:17:00;;;;;;;7.60;6.63;;;17.40;99.90;;;;;;5050532;28;20045;-73
2022/06/18 02:19:27;;;;;;;7.57;6.82;;;17.40;99.90;;;;;;5050402;28;20088;-73
2022/06/18 02:21:56;;;;;;;7.80;7.10;;;17.40;99.90;;;;;;5050255;28;20401;-73
2022/06/18 02:24:22;;;;;;;7.05;6.40;;;17.50;99.90;;;;;;5051640;28;20039;-73
2022/06/18 02:26:48;;;;;;;11.50;7.50;;;17.40;99.90;;;;;;5033487;28;20068;-73
2022/06/18 02:29:26;;;;;;;8.32;6.90;;;17.40;99.90;;;;;;5049958;28;20130;-73
2022/06/18 02:31:53;;;;;;;8.13;7.38;;;17.40;99.90;;;;;;5050016;28;20067;-73
2022/06/18 02:34:24;;;;;;;9.02;7.70;;;17.40;99.90;;;;;;5049750;28;20033;-73
2022/06/18 02:36:49;;;;;;;8.57;7.05;;;17.40;99.90;;;;;;5050002;28;20076;-73
2022/06/18 02:39:50;;;;;;;8.32;7.07;;;17.40;99.90;;;;;;5049998;28;20084;-73
2022/06/18 02:42:19;;;;;;;9.52;8.07;;;17.40;99.90;;;;;;5049675;28;20041;-73
2022/06/18 02:44:47;;;;;;;8.13;7.35;;;17.40;99.90;;;;;;5032995;28;20037;-73
2022/06/18 02:47:13;;;;;;;8.35;7.60;;;17.40;99.90;;;;;;5049663;28;20041;-73
2022/06/18 02:49:45;;;;;;;8.68;7.78;;;17.40;99.90;;;;;;5049566;28;20116;-73
2022/06/18 02:52:11;;;;;;;;;;;17.40;99.90;;;;;;5033254;28;20051;-72
2022/06/18 02:54:37;;;;;;;10.23;7.82;;;17.50;99.90;;;;;;5049420;28;19928;-73
2022/06/18 02:57:12;;;;;;;9.50;8.35;;;17.50;99.90;;;;;;5049803;28;20398;-73
2022/06/18 02:59:38;;;;;;;10.60;8.40;;;17.50;99.90;;;;;;5049394;28;20044;-73
2022/06/18 03:02:03;;;;;;;10.38;9.38;;;17.60;99.90;;;;;;5049498;28;20049;-73
2022/06/18 03:04:29;;;;;;;9.93;8.95;;;17.70;99.90;;;;;;5049340;28;20033;-73
2022/06/18 03:06:54;;;;;;;12.38;9.00;;;17.80;99.90;;;;;;5049653;28;20049;-73
2022/06/18 03:09:20;;;;;;;13.40;9.57;;;17.80;99.90;;;;;;5049187;28;20045;-73
2022/06/18 03:14:29;;;;;;;11.00;9.90;;;17.90;99.90;;;;;;5048734;28;20045;-73
2022/06/18 03:16:55;;;;;;;11.52;9.57;;;18.00;99.90;;;;;;5048749;28;20390;-72
2022/06/18 03:19:33;;;;;;;10.85;9.85;;;18.00;99.90;;;;;;5048681;28;20032;-73
2022/06/18 03:22:09;;;;;;;11.43;9.75;;;18.00;99.90;;;;;;5048995;28;20041;-73
2022/06/18 03:24:34;;;;;;;12.57;10.05;;;18.10;99.90;;;;;;5049053;28;20040;-73
2022/06/18 03:27:00;;;;;;;14.10;10.30;;;18.10;99.90;;;;;;5049270;28;20037;-73
2022/06/18 03:29:25;;;;;;;11.20;9.90;;;18.00;99.90;;;;;;5048971;28;20053;-73
2022/06/18 03:31:51;;;;;;;9.63;8.68;;;18.00;99.90;;;;;;5048992;28;20044;-73
2022/06/18 03:34:17;;;;;;;11.13;10.02;;;18.00;99.90;;;;;;5048908;28;20045;-72
2022/06/18 03:36:42;;;;;;;13.27;10.50;;;18.00;99.90;;;;;;5049462;28;20099;-73
2022/06/18 03:39:09;;;;;;;12.40;9.57;;;18.00;99.90;;;;;;5048955;28;20079;-73
2022/06/18 03:41:35;;;;;;;14.73;10.23;;;18.00;99.90;;;;;;5050323;28;20513;-73
2022/06/18 03:44:01;;;;;;;16.40;10.75;;;18.00;99.90;;;;;;5032216;28;20041;-73
2022/06/18 03:46:26;;;;;;;13.93;11.25;;;18.00;99.90;;;;;;5049030;28;20163;-73
2022/06/18 03:48:55;;;;;;;12.35;11.07;;;18.00;99.90;;;;;;5049168;28;20505;-73
2022/06/18 03:51:21;;;;;;;15.10;10.93;;;18.00;99.90;;;;;;5032220;28;20048;-73
2022/06/18 03:53:47;;;;;;;12.68;10.10;;;18.10;99.90;;;;;;5031965;28;20494;-72
2022/06/18 03:56:15;;;;;;;13.07;11.63;;;18.10;99.90;;;;;;5032301;28;20041;-72
2022/06/18 03:58:42;;;;;;;17.20;11.90;;;18.20;99.90;;;;;;5048782;28;20526;-73
2022/06/18 04:01:09;;;;;;;12.98;11.63;;;18.20;99.90;;;;;;5048577;28;20079;-73
2022/06/18 04:03:34;;;;;;;13.75;11.95;;;18.20;99.90;;;;;;5032668;28;20037;-73
2022/06/18 04:06:00;;;;;;;17.13;12.68;;;18.30;99.90;;;;;;5052606;28;20043;-73
2022/06/18 04:08:25;;;;;;;15.50;12.40;;;18.30;99.90;;;;;;5036041;28;20122;-72
2022/06/18 04:10:51;;;;;;;14.02;11.38;;;18.40;99.90;;;;;;5052822;28;20036;-73
2022/06/18 04:13:16;;;;;;;15.60;11.88;;;18.40;99.90;;;;;;5052546;28;20056;-72
2022/06/18 04:15:42;;;;;;;15.43;13.27;;;18.50;99.90;;;;;;5035946;28;20049;-73
2022/06/18 04:18:12;;;;;;;14.27;12.45;;;18.50;99.90;;;;;;5052790;28;20040;-73
2022/06/18 04:20:38;;;;;;;13.93;12.25;;;18.50;99.90;;;;;;5052389;28;20098;-73
2022/06/18 04:23:04;;;;;;;13.95;12.38;;;18.60;99.90;;;;;;5035782;28;20049;-73
2022/06/18 04:25:30;;;;;;;14.70;12.63;;;18.60;99.90;;;;;;5052712;28;20157;-73
2022/06/18 04:27:57;;;;;;;16.00;13.40;;;18.70;99.90;;;;;;5052393;28;20075;-73
2022/06/18 04:30:24;;;;;;;15.18;13.30;;;18.70;99.90;;;;;;5052200;28;20107;-73
2022/06/18 04:32:51;;;;;;;15.65;13.90;;;18.70;99.90;;;;;;5035877;28;20368;-73
2022/06/18 04:35:17;;;;;;;15.98;13.10;;;18.70;99.90;;;;;;5052362;28;20063;-72
2022/06/18 04:37:44;;;;;;;16.05;12.82;;;18.90;99.90;;;;;;5052208;28;20490;-73
2022/06/18 04:40:34;;;;;;;27.20;14.38;;;18.80;99.90;;;;;;5052462;28;20469;-73
2022/06/18 04:43:07;;;;;;;16.48;13.63;;;18.90;99.90;;;;;;5035517;28;20047;-72
2022/06/18 04:45:34;;;;;;;18.42;13.23;;;18.90;99.90;;;;;;5035528;28;20044;-73
2022/06/18 04:48:00;;;;;;;19.05;14.20;;;19.00;99.90;;;;;;5051958;28;20048;-73
2022/06/18 04:50:33;;;;;;;18.38;14.40;;;19.00;99.90;;;;;;5035569;28;20045;-73
2022/06/18 04:52:59;;;;;;;15.30;13.70;;;19.10;99.90;;;;;;5035343;28;20041;-72
2022/06/18 04:55:25;;;;;;;18.65;13.50;;;19.20;99.90;;;;;;5051713;28;20392;-73
2022/06/18 04:57:50;;;;;;;17.65;14.23;;;19.20;99.90;;;;;;5035306;28;20380;-72
2022/06/18 05:00:17;;;;;;;18.10;14.75;;;19.20;99.90;;;;;;5051643;28;20506;-72
2022/06/18 05:02:42;;;;;;;19.20;14.63;;;19.20;99.90;;;;;;5051682;28;20052;-72
2022/06/18 05:05:16;;;;;;;18.08;14.45;;;19.30;99.90;;;;;;5051910;28;20045;-72
2022/06/18 05:07:42;;;;;;;19.35;14.77;;;19.40;99.90;;;;;;5051587;28;20072;-72
2022/06/18 05:10:09;;;;;;;18.08;16.23;;;19.40;99.90;;;;;;5035130;28;20106;-73
2022/06/18 05:12:35;;;;;;;22.75;15.45;;;19.30;99.90;;;;;;5051668;28;20044;-73
2022/06/18 05:15:00;;;;;;;22.70;15.68;;;19.40;99.90;;;;;;5050977;28;20037;-73
2022/06/18 05:17:29;;;;;;;16.85;15.15;;;19.50;99.90;;;;;;5051255;28;20056;-73
2022/06/18 05:19:56;;;;;;;21.42;16.38;;;19.50;99.90;;;;;;5034854;28;20072;-73
2022/06/18 05:22:21;;;;;;;23.58;15.20;;;19.60;99.90;;;;;;5051338;28;20049;-73
2022/06/18 05:24:47;;;;;;;20.60;16.65;;;19.70;99.90;;;;;;5051333;28;20044;-73
2022/06/18 05:27:32;;;;;;;20.02;15.48;;;19.70;99.90;;;;;;5051074;28;20056;-73
2022/06/18 05:29:58;;;;;;;23.08;15.77;;;19.80;99.90;;;;;;5051410;28;20037;-73
2022/06/18 05:32:23;;;;;;;23.48;14.93;;;19.90;99.90;;;;;;5034425;28;20379;-73
2022/06/18 05:34:49;;;;;;;18.98;15.50;;;20.00;99.90;;;;;;5051120;28;20041;-73
2022/06/18 05:37:20;;;;;;;20.67;14.82;;;20.10;99.90;;;;;;5051445;28;20037;-73
2022/06/18 05:39:45;;;;;;;20.83;14.73;;;20.20;99.90;;;;;;5034841;28;20390;-73
2022/06/18 05:42:11;;;;;;;21.77;14.85;;;20.30;99.90;;;;;;5034414;28;20052;-73
2022/06/18 05:44:37;;;;;;;21.83;15.60;;;20.30;99.90;;;;;;5051041;28;20044;-73
2022/06/18 05:47:18;;;;;;;22.30;16.23;;;20.50;99.90;;;;;;5034102;28;20515;-73
2022/06/18 05:49:44;;;;;;;16.80;13.00;;;21.30;99.90;;;;;;5052314;28;20429;-73
2022/06/18 05:52:10;;;;;;;19.65;13.68;;;22.30;99.90;;;;;;5050579;28;20037;-73
2022/06/18 05:54:35;;;;;;;17.83;12.93;;;23.30;99.90;;;;;;5050433;28;20064;-73
2022/06/18 05:57:01;;;;;;;23.73;14.30;;;24.10;99.90;;;;;;5034033;28;20445;-73
2022/06/18 05:59:27;;;;;;;20.85;14.25;;;24.80;99.90;;;;;;5050549;28;20442;-73
2022/06/18 06:01:56;;;;;;;18.75;13.05;;;25.00;99.40;;;;;;5050466;28;20198;-74
2022/06/18 06:04:22;;;;;;;17.77;12.02;;;25.40;98.40;;;;;;5050785;28;20044;-73
2022/06/18 06:06:48;;;;;;;17.95;12.77;;;25.40;97.60;;;;;;5050480;28;20048;-73
2022/06/18 06:11:28;;;;;;;14.75;11.38;;;25.80;97.20;;;;;;5051870;28;20029;-73
2022/06/18 06:12:00;;;;;;;16.38;11.55;;;26.40;96.00;;;;;;5050423;28;20037;-73
2022/06/18 06:14:25;;;;;;;16.08;10.63;;;26.80;94.50;;;;;;5050271;28;20037;-73
2022/06/18 06:16:51;;;;;;;31.30;12.07;;;27.10;94.10;;;;;;5051663;28;20398;-74
2022/06/18 06:19:16;;;;;;;14.65;10.10;;;27.30;93.90;;;;;;5033488;28;20091;-73
2022/06/18 06:21:42;;;;;;;13.52;10.07;;;27.70;92.50;;;;;;5033593;28;20261;-73
2022/06/18 06:24:08;;;;;;;14.07;9.68;;;27.90;91.80;;;;;;5033403;28;20107;-74
2022/06/18 06:26:35;;;;;;;16.45;9.05;;;28.20;91.90;;;;;;5049668;28;20072;-74
2022/06/18 06:29:01;;;;;;;15.77;8.70;;;28.40;91.50;;;;;;5050384;28;20426;-74
2022/06/18 06:31:26;;;;;;;14.40;8.73;;;28.70;91.00;;;;;;5051723;28;20123;-73
2022/06/18 06:33:52;;;;;;;11.93;8.18;;;28.80;90.10;;;;;;5049872;28;20076;-73
2022/06/18 06:36:18;;;;;;;12.35;8.10;;;28.70;88.20;;;;;;5050131;28;20045;-74
2022/06/18 06:38:44;;;;;;;15.00;8.00;;;28.80;88.60;;;;;;5049811;28;20083;-74
2022/06/18 06:41:13;;;;;;;14.45;7.97;;;29.20;87.80;;;;;;5049783;28;20112;-74
2022/06/18 06:43:39;;;;;;;12.30;7.95;;;29.40;85.70;;;;;;5049561;28;20087;-73
2022/06/18 06:46:04;;;;;;;11.65;7.10;;;29.50;83.00;;;;;;5049819;28;20044;-73
2022/06/18 06:48:30;;;;;;;12.57;7.07;;;29.00;86.70;;;;;;5049547;28;20079;-74
2022/06/18 06:50:56;;;;;;;13.25;7.35;;;29.80;87.20;;;;;;5049680;28;20045;-73
2022/06/18 06:53:22;;;;;;;14.02;6.97;;;30.30;85.50;;;;;;5049442;28;20072;-73
2022/06/18 06:58:31;;;;;;;11.07;6.20;;;31.00;81.80;;;;;;5049451;28;20048;-74
2022/06/18 07:00:58;;;;;;;14.68;7.45;;;31.30;82.10;;;;;;5049446;28;20047;-74
2022/06/18 07:03:27;;;;;;;10.75;6.20;;;30.00;78.20;;;;;;5032739;28;20072;-74
2022/06/18 07:05:54;;;;;;;7.97;5.35;;;30.30;79.80;;;;;;5049454;28;20397;-74
2022/06/18 07:08:20;;;;;;;9.73;6.00;;;30.80;78.50;;;;;;5049254;28;20053;-74
2022/06/18 07:10:48;;;;;;;11.85;6.57;;;30.30;77.70;;;;;;5049453;28;20043;-74
2022/06/18 07:13:14;;;;;;;9.50;5.55;;;29.80;77.20;;;;;;5049176;28;20048;-74
2022/06/18 07:15:40;;;;;;;10.23;6.45;;;30.80;78.00;;;;;;5049208;28;20040;-74
2022/06/18 07:18:14;;;;;;;13.93;5.47;;;29.90;74.70;;;;;;5049226;28;20048;-74
2022/06/18 07:20:40;;;;;;;8.70;5.18;;;30.90;77.10;;;;;;5032800;28;20044;-73
2022/06/18 07:23:06;;;;;;;15.23;5.80;;;31.40;76.00;;;;;;5049136;28;20045;-73
2022/06/18 07:25:31;;;;;;;10.05;4.60;;;30.80;74.70;;;;;;5049239;28;20040;-74
2022/06/18 07:27:57;;;;;;;10.32;5.18;;;31.40;74.50;;;;;;5049301;28;20047;-74
2022/06/18 07:30:22;;;;;;;7.93;5.28;;;31.40;73.10;;;;;;5048917;28;20041;-74
2022/06/18 07:32:49;;;;;;;10.88;5.32;;;31.20;73.40;;;;;;5032764;28;20520;-74
2022/06/18 07:35:24;;;;;;;14.00;5.35;;;29.20;76.30;;;;;;5048863;28;20045;-73
2022/06/18 07:37:50;;;;;;;10.02;4.75;;;30.50;75.80;;;;;;5048912;28;20167;-74
2022/06/18 07:40:16;;;;;;;12.77;6.03;;;30.80;74.90;;;;;;5048800;28;20147;-73
2022/06/18 07:42:44;;;;;;;10.68;5.97;;;30.30;74.80;;;;;;5048978;28;20501;-74
2022/06/18 07:45:16;;;;;;;7.82;5.18;;;30.10;75.10;;;;;;5032163;28;20166;-73
2022/06/18 07:47:42;;;;;;;12.60;5.95;;;30.50;73.00;;;;;;5049076;28;20389;-73
2022/06/18 07:50:08;;;;;;;9.25;5.40;;;30.40;75.10;;;;;;5049103;28;20037;-74
2022/06/18 07:52:34;;;;;;;9.60;5.53;;;30.90;75.00;;;;;;5048800;28;20056;-74
2022/06/18 07:55:00;;;;;;;9.75;5.15;;;31.40;73.80;;;;;;5032076;28;20049;-73
2022/06/18 07:57:25;;;;;;;11.38;5.50;;;31.00;72.80;;;;;;5048826;28;20479;-73
2022/06/18 07:59:51;;;;;;;8.13;4.05;;;31.40;73.10;;;;;;5032020;28;20090;-73
2022/06/18 08:02:18;;;;;;;7.03;4.45;;;31.70;72.80;;;;;;5032381;28;20041;-73
2022/06/18 08:04:43;;;;;;;7.35;4.82;;;31.80;72.40;;;;;;5032080;28;20053;-74
2022/06/18 08:07:09;;;;;;;10.90;5.43;;;30.90;72.90;;;;;;5048871;28;20049;-73
2022/06/18 08:09:36;;;;;;;8.70;4.75;;;29.80;75.50;;;;;;5031957;28;20051;-73
2022/06/18 08:12:02;;;;;;;8.05;4.97;;;29.60;74.50;;;;;;5048557;28;20037;-73
2022/06/18 08:14:27;;;;;;;6.40;4.70;;;30.00;74.30;;;;;;5048553;28;20047;-73
2022/06/18 08:16:53;;;;;;;9.35;4.63;;;29.60;75.50;;;;;;5048736;28;20037;-73
2022/06/18 08:19:18;;;;;;;7.55;4.18;;;29.20;75.20;;;;;;5048786;28;20425;-73
2022/06/18 08:21:45;;;;;;;9.07;5.28;;;28.90;74.30;;;;;;5048594;28;20041;-73
2022/06/18 08:24:17;;;;;;;8.05;4.72;;;28.60;75.50;;;;;;5049009;28;20098;-73
2022/06/18 08:26:44;;;;;;;15.05;4.97;;;28.30;77.30;;;;;;5048374;28;20129;-73
2022/06/18 08:29:13;;;;;;;8.63;4.88;;;27.70;80.50;;;;;;5048724;28;20095;-73
2022/06/18 08:31:39;;;;;;;10.00;5.07;;;27.60;79.70;;;;;;5048594;28;20478;-73
2022/06/18 08:34:04;;;;;;;8.38;4.90;;;27.20;82.20;;;;;;5049876;28;20116;-73
2022/06/18 08:36:30;;;;;;;10.00;4.80;;;27.10;81.90;;;;;;5048296;28;20037;-73
2022/06/18 08:38:57;;;;;;;6.68;4.20;;;26.80;83.90;;;;;;5031986;28;20049;-73
2022/06/18 08:41:30;;;;;;;9.15;4.00;;;26.60;84.70;;;;;;5048183;28;20052;-73
2022/06/18 08:44:05;;;;;;;7.07;3.33;;;26.60;83.90;;;;;;5048423;28;20458;-73
2022/06/18 08:46:50;;;;;;;6.28;3.58;;;26.60;83.90;;;;;;5048228;28;20106;-73
2022/06/18 08:49:45;;;;;;;5.65;3.03;;;26.60;84.10;;;;;;5048299;28;20143;-73
2022/06/18 08:52:26;;;;;;;4.75;3.33;;;26.60;84.30;;;;;;5035732;28;20390;-73
2022/06/18 08:55:24;;;;;;;6.75;3.20;;;26.70;82.20;;;;;;5035114;28;20140;-73
2022/06/18 08:58:00;;;;;;;5.57;2.90;;;26.80;83.50;;;;;;5018248;28;20063;-73
2022/06/18 09:00:35;;;;;;;5.68;2.60;;;26.40;83.80;;;;;;5051617;28;20041;-73
2022/06/18 09:03:05;;;;;;;7.47;2.65;;;25.60;85.00;;;;;;5035306;28;20041;-73
2022/06/18 09:05:33;;;;;;;7.60;3.40;;;25.70;86.40;;;;;;5035217;28;20498;-73
2022/06/18 09:08:19;;;;;;;6.97;3.00;;;25.90;86.70;;;;;;5051668;28;20048;-73
2022/06/18 09:10:54;;;;;;;5.65;2.85;;;25.90;88.20;;;;;;5052695;28;20155;-73
2022/06/18 09:13:32;;;;;;;6.25;2.60;;;26.10;84.50;;;;;;5051481;28;20375;-72
2022/06/18 09:16:04;;;;;;;6.30;3.00;;;26.00;88.80;;;;;;5051600;28;20067;-72
2022/06/18 09:18:36;;;;;;;6.45;2.58;;;26.10;86.00;;;;;;5035137;28;20118;-72
2022/06/18 09:21:11;;;;;;;8.57;2.70;;;26.10;86.90;;;;;;5051308;28;20040;-72
2022/06/18 09:23:55;;;;;;;5.65;2.50;;;26.20;88.70;;;;;;5051346;28;20569;-72
2022/06/18 09:26:41;;;;;;;5.80;2.65;;;26.20;89.10;;;;;;5051312;28;20037;-72
2022/06/18 09:29:14;;;;;;;9.30;2.35;;;25.50;90.00;;;;;;5051221;28;20056;-72
2022/06/18 09:31:53;;;;;;;4.13;1.98;;;25.70;89.30;;;;;;5034790;28;20033;-72
2022/06/18 09:34:49;;;;;;;5.13;1.80;;;25.50;90.10;;;;;;5052179;28;20052;-72
2022/06/18 09:37:42;;;;;;;4.28;1.70;;;25.70;90.90;;;;;;5051153;28;20087;-72
2022/06/18 09:40:18;;;;;;;4.07;1.98;;;25.50;91.00;;;;;;5034377;28;20033;-72
2022/06/18 09:42:57;;;;;;;4.15;2.05;;;25.50;91.30;;;;;;5050794;28;20044;-72
2022/06/18 09:45:28;;;;;;;3.05;1.40;;;25.40;90.70;;;;;;5050875;28;20041;-72
2022/06/18 09:47:54;;;;;;;4.68;1.60;;;25.10;91.60;;;;;;5050978;28;20529;-72
2022/06/18 09:50:45;;;;;;;4.10;1.42;;;25.50;93.40;;;;;;5050922;28;20490;-71
2022/06/18 09:53:18;;;;;;;3.47;1.20;;;25.60;90.40;;;;;;5033874;28;20045;-71
2022/06/18 09:55:52;;;;;;;4.05;1.50;;;25.40;91.60;;;;;;5050787;28;20103;-71
2022/06/18 09:58:37;;;;;;;2.33;1.25;;;25.50;92.00;;;;;;5050857;28;20474;-71
2022/06/18 10:01:05;;;;;;;3.13;1.40;;;25.80;91.40;;;;;;5050677;28;20056;-71
2022/06/18 10:09:07;;;;;;;2.55;1.60;;;26.50;90.80;;;;;;5052184;28;20064;-71
2022/06/18 10:11:32;;;;;;;3.05;1.73;;;26.40;90.70;;;;;;5050226;28;20051;-71
2022/06/18 10:14:04;;;;;;;1.90;1.30;;;26.50;90.40;;;;;;5050434;28;20048;-71
2022/06/18 10:16:58;;;;;;;4.80;1.55;;;26.30;91.80;;;;;;5050770;28;20044;-71
2022/06/18 10:19:42;;;;;;;3.53;1.55;;;26.50;91.10;;;;;;5051629;28;20045;-71
2022/06/18 10:22:14;;;;;;;3.65;1.60;;;26.50;90.80;;;;;;5051648;28;20441;-71
2022/06/18 10:25:03;;;;;;;2.35;1.40;;;26.10;91.20;;;;;;5050323;28;20530;-71
2022/06/18 10:27:45;;;;;;;2.90;1.67;;;25.70;91.40;;;;;;5050215;28;20149;-71
2022/06/18 10:30:28;;;;;;;2.50;1.50;;;25.20;91.70;;;;;;5051600;28;20095;-71
2022/06/18 10:33:24;;;;;;;3.20;1.33;;;24.90;92.20;;;;;;5051193;28;20048;-71
2022/06/18 10:36:16;;;;;;;2.50;1.20;;;25.40;92.70;;;;;;5028054;28;20418;-71
2022/06/18 10:38:44;;;;;;;3.15;1.35;;;25.80;91.70;;;;;;5049869;28;20052;-71
2022/06/18 10:41:22;;;;;;;3.08;1.33;;;25.40;92.10;;;;;;5049893;28;20041;-71
2022/06/18 10:43:48;;;;;;;2.50;1.42;;;25.30;92.50;;;;;;5033139;28;20376;-71
2022/06/18 10:46:18;;;;;;;3.97;1.40;;;25.60;91.90;;;;;;5049757;28;20135;-71
2022/06/18 10:48:52;;;;;;;2.67;1.30;;;25.10;92.30;;;;;;5049668;28;20049;-71
2022/06/18 10:51:21;;;;;;;4.20;1.50;;;25.40;93.00;;;;;;5049651;28;20044;-71
2022/06/18 10:54:01;;;;;;;2.58;1.40;;;25.60;92.40;;;;;;5050801;28;20102;-71
2022/06/18 10:56:30;;;;;;;2.92;1.50;;;25.60;91.80;;;;;;5049558;28;20538;-71
2022/06/18 10:59:02;;;;;;;1.60;1.10;;;25.50;92.40;;;;;;5049472;28;20044;-71
2022/06/18 11:01:38;;;;;;;3.33;1.30;;;25.80;91.70;;;;;;5032874;28;20047;-71
2022/06/18 11:04:18;;;;;;;2.35;1.13;;;25.90;91.40;;;;;;5032665;28;20106;-71
2022/06/18 11:06:45;;;;;;;2.65;1.10;;;25.10;92.00;;;;;;5049650;28;20497;-71
2022/06/18 11:09:21;;;;;;;2.88;1.58;;;25.70;91.70;;;;;;5050456;28;20033;-71
2022/06/18 11:11:54;;;;;;;2.95;1.50;;;26.00;91.80;;;;;;5049340;28;20051;-71
2022/06/18 11:14:20;;;;;;;2.47;0.93;;;25.80;91.90;;;;;;5048926;28;20044;-71
2022/06/18 11:16:47;;;;;;;2.88;1.02;;;26.10;91.90;;;;;;5049333;28;20052;-71
2022/06/18 11:19:24;;;;;;;1.67;1.17;;;26.40;90.90;;;;;;5049055;28;20171;-71
2022/06/18 11:21:50;;;;;;;4.43;1.40;;;26.50;91.10;;;;;;5032620;28;20067;-71
2022/06/18 11:24:33;;;;;;;3.13;1.23;;;26.00;90.50;;;;;;5048974;28;20468;-71
2022/06/18 11:27:03;;;;;;;2.97;1.30;;;26.50;90.60;;;;;;5050490;28;20044;-71
2022/06/18 11:29:40;;;;;;;2.63;1.13;;;26.70;89.80;;;;;;5049499;28;20073;-71
2022/06/18 11:32:17;;;;;;;2.47;1.23;;;26.90;89.40;;;;;;5048996;28;20076;-71
2022/06/18 11:34:46;;;;;;;2.83;1.00;;;27.10;90.40;;;;;;5048949;28;20051;-71
2022/06/18 11:37:32;;;;;;;2.72;1.10;;;27.10;90.40;;;;;;5032468;28;20554;-71
2022/06/18 11:40:19;;;;;;;1.70;1.10;;;27.20;91.10;;;;;;5048710;28;20094;-72
2022/06/18 11:42:56;;;;;;;4.60;1.23;;;26.90;90.90;;;;;;5049135;28;20052;-72
2022/06/18 11:45:34;;;;;;;2.58;1.25;;;27.20;90.00;;;;;;5048813;28;20048;-72
2022/06/18 11:48:34;;;;;;;2.33;0.95;;;27.00;90.90;;;;;;5049184;28;20476;-72
2022/06/18 11:51:05;;;;;;;4.93;1.20;;;27.50;89.60;;;;;;5048935;28;20044;-72
2022/06/18 11:53:33;;;;;;;3.53;1.27;;;27.60;89.50;;;;;;5049025;28;20065;-72
2022/06/18 11:56:00;;;;;;;1.45;0.98;;;27.80;89.00;;;;;;5048949;28;20295;-72
2022/06/18 11:58:52;;;;;;;1.70;1.17;;;28.00;87.70;;;;;;5048944;28;20040;-72
2022/06/18 12:01:37;;;;;;;2.17;1.05;;;27.80;88.40;;;;;;5046846;28;20136;-72
2022/06/18 12:04:26;;;;;;;2.83;0.90;;;27.90;89.20;;;;;;5048579;28;20041;-72
2022/06/18 12:07:13;;;;;;;2.83;1.13;;;27.40;90.20;;;;;;5048617;28;20112;-72
2022/06/18 12:09:41;;;;;;;2.08;1.02;;;27.70;89.40;;;;;;5050039;28;20037;-72
2022/06/18 12:12:21;;;;;;;1.85;1.00;;;27.80;89.60;;;;;;5048645;28;20045;-72
2022/06/18 12:14:57;;;;;;;1.50;0.90;;;27.60;88.50;;;;;;5048715;28;20052;-72
2022/06/18 12:17:59;;;;;;;2.63;0.90;;;27.40;87.80;;;;;;5050054;28;20136;-72
2022/06/18 12:20:35;;;;;;;;;;;27.30;88.80;;;;;;5042149;28;20060;-72
2022/06/18 12:23:13;;;;;;;2.13;0.65;;;27.40;90.20;;;;;;5048561;28;19921;-72
2022/06/18 12:25:58;;;;;;;1.55;0.77;;;27.20;89.40;;;;;;5050670;28;20502;-72
2022/06/18 12:28:34;;;;;;;2.90;0.82;;;27.60;88.10;;;;;;5052430;28;20292;-72
2022/06/18 12:31:29;;;;;;;2.50;0.90;;;27.30;88.50;;;;;;5035740;28;20041;-72
2022/06/18 12:34:07;;;;;;;1.42;0.70;;;27.70;88.90;;;;;;5052227;28;20041;-72
2022/06/18 12:36:51;;;;;;;1.98;0.95;;;27.80;89.30;;;;;;5052225;28;20045;-72
2022/06/18 12:39:31;;;;;;;1.45;0.80;;;27.70;88.20;;;;;;5053600;28;20041;-72
2022/06/18 12:42:30;;;;;;;3.10;0.80;;;27.80;88.50;;;;;;5035601;28;20124;-72
2022/06/18 12:45:02;;;;;;;2.65;0.85;;;27.90;89.90;;;;;;5052263;28;20084;-72
2022/06/18 12:47:35;;;;;;;2.28;1.15;;;27.60;88.20;;;;;;5035396;28;20041;-72
2022/06/18 12:50:21;;;;;;;1.10;0.80;;;27.80;88.40;;;;;;5051868;28;20037;-72
2022/06/18 12:53:07;;;;;;;2.72;0.80;;;27.70;89.10;;;;;;5051749;28;20060;-72
2022/06/18 12:55:50;;;;;;;2.50;0.73;;;27.50;89.20;;;;;;5051702;28;20061;-72
2022/06/18 12:58:58;;;;;;;1.85;0.73;;;27.40;88.40;;;;;;5052091;28;20071;-72
2022/06/18 13:02:03;;;;;;;1.75;0.85;;;27.20;89.20;;;;;;5034924;28;20056;-72
2022/06/18 13:04:53;;;;;;;1.17;0.80;;;26.60;90.10;;;;;;5051733;28;20502;-72
2022/06/18 13:07:39;;;;;;;2.08;0.68;;;26.70;89.10;;;;;;5051776;28;20094;-72
2022/06/18 13:10:45;;;;;;;2.03;0.80;;;26.00;90.80;;;;;;5051405;28;20094;-72
2022/06/18 13:13:28;;;;;;;2.85;1.25;;;26.30;91.50;;;;;;5030832;28;20145;-72
2022/06/18 13:16:02;;;;;;;2.67;1.00;;;26.20;90.70;;;;;;5052825;28;20049;-72
2022/06/18 13:18:55;;;;;;;2.78;1.02;;;26.50;90.50;;;;;;5051703;28;20063;-72